Time;durP1;ratioP1;P1;durP2;ratioP2;P2;SDS_P1;SDS_P2;PMS_P1;PMS_P2;Temp;Humidity;BMP_temperature;BMP_pressure;BME280_temperature;BME280_humidity;BME280_pressure;Samples;Min_cycle;Max_cycle;Signal;HPM_P1;HPM_P2
2023/03/09 00:02:09;;;;;;;19.73;11.53;;;0.80;99.90;;;;;;5069300;28;20115;-76
2023/03/09 00:04:36;;;;;;;19.40;10.83;;;0.80;99.90;;;;;;5053457;28;20052;-76
2023/03/09 00:07:02;;;;;;;19.50;11.10;;;0.80;99.90;;;;;;5054289;28;20049;-73
2023/03/09 00:09:28;;;;;;;22.00;12.23;;;0.80;99.90;;;;;;5070217;28;20123;-77
2023/03/09 00:11:53;;;;;;;21.00;12.37;;;0.90;99.90;;;;;;5069687;28;20131;-76
2023/03/09 00:14:21;;;;;;;22.30;12.37;;;0.80;99.90;;;;;;5069702;28;20094;-76
2023/03/09 00:16:46;;;;;;;19.37;11.60;;;0.90;99.90;;;;;;5055381;28;20116;-76
2023/03/09 00:19:12;;;;;;;20.03;12.60;;;0.80;99.90;;;;;;5068566;28;20045;-77
2023/03/09 00:21:39;;;;;;;21.77;12.50;;;0.80;99.90;;;;;;5070496;28;20564;-77
2023/03/09 00:24:14;;;;;;;21.60;13.97;;;0.80;99.90;;;;;;5074708;28;20047;-76
2023/03/09 00:26:42;;;;;;;25.20;14.60;;;0.80;99.90;;;;;;5059878;28;20048;-76
2023/03/09 00:29:09;;;;;;;24.03;14.00;;;0.80;99.90;;;;;;5069050;28;20045;-76
2023/03/09 00:31:35;;;;;;;24.60;14.93;;;0.70;99.90;;;;;;5068961;28;20040;-77
2023/03/09 00:34:01;;;;;;;24.87;14.97;;;0.70;99.90;;;;;;5066692;28;20162;-76
2023/03/09 00:36:27;;;;;;;28.70;16.27;;;0.70;99.90;;;;;;5038416;28;20041;-76
2023/03/09 00:38:54;;;;;;;27.07;16.50;;;0.70;99.90;;;;;;5066805;28;20089;-76
2023/03/09 00:41:22;;;;;;;22.77;15.07;;;0.70;99.90;;;;;;5070334;28;20398;-78
2023/03/09 00:43:48;;;;;;;28.00;16.53;;;0.70;99.90;;;;;;5068528;28;20070;-78
2023/03/09 00:46:15;;;;;;;25.57;15.63;;;0.70;99.90;;;;;;5061348;28;20044;-76
2023/03/09 00:48:41;;;;;;;26.63;16.07;;;0.60;99.90;;;;;;5064205;28;20048;-76
2023/03/09 00:51:08;;;;;;;27.00;15.27;;;1.20;99.90;;;;;;5069099;28;20059;-76
2023/03/09 00:53:34;;;;;;;26.00;15.50;;;0.80;99.90;;;;;;5067563;28;20041;-78
2023/03/09 00:56:06;;;;;;;23.33;14.70;;;0.50;99.90;;;;;;5049481;28;20072;-77
2023/03/09 00:58:32;;;;;;;27.83;15.87;;;0.50;99.90;;;;;;5038461;28;20041;-77
2023/03/09 01:00:57;;;;;;;25.23;15.37;;;0.40;99.90;;;;;;5050443;28;20413;-78
2023/03/09 01:03:23;;;;;;;25.30;15.33;;;0.40;99.90;;;;;;5047704;28;20052;-76
2023/03/09 01:05:49;;;;;;;27.80;16.27;;;0.40;99.90;;;;;;5048265;28;20048;-76
2023/03/09 01:08:15;;;;;;;23.47;15.70;;;0.30;99.90;;;;;;5033743;28;20053;-76
2023/03/09 01:10:41;;;;;;;26.87;15.87;;;0.30;99.90;;;;;;5057153;28;20048;-76
2023/03/09 01:13:09;;;;;;;25.90;15.30;;;0.30;99.90;;;;;;5068149;28;20527;-76
2023/03/09 01:15:35;;;;;;;29.27;16.17;;;0.30;99.90;;;;;;5069588;28;20045;-76
2023/03/09 01:18:01;;;;;;;25.50;15.43;;;0.20;99.90;;;;;;5035520;28;20040;-77
2023/03/09 01:20:26;;;;;;;26.90;15.83;;;0.20;99.90;;;;;;5051997;28;20045;-77
2023/03/09 01:22:52;;;;;;;25.93;15.57;;;0.20;99.90;;;;;;5067955;28;20051;-77
2023/03/09 01:25:18;;;;;;;29.27;16.03;;;0.20;99.90;;;;;;5080272;28;20052;-76
2023/03/09 01:27:43;;;;;;;26.80;15.50;;;0.30;99.90;;;;;;5052505;28;20044;-76
2023/03/09 01:30:10;;;;;;;27.53;16.10;;;0.10;99.90;;;;;;5069293;28;20093;-76
2023/03/09 01:32:36;;;;;;;27.97;15.80;;;0.10;99.90;;;;;;5049740;28;20131;-76
2023/03/09 01:35:01;;;;;;;27.90;16.30;;;0.10;99.90;;;;;;5064393;28;20535;-76
2023/03/09 01:37:27;;;;;;;26.50;16.20;;;0.10;99.90;;;;;;5053102;28;20490;-77
2023/03/09 01:39:53;;;;;;;28.50;16.40;;;0.00;99.90;;;;;;5068172;28;20045;-76
2023/03/09 01:42:18;;;;;;;27.47;16.27;;;-0.10;99.90;;;;;;5068181;28;20044;-77
2023/03/09 01:44:44;;;;;;;28.50;17.47;;;-0.10;99.90;;;;;;5068849;28;20036;-76
2023/03/09 01:47:10;;;;;;;29.53;16.40;;;-0.10;99.90;;;;;;5053162;28;20063;-76
2023/03/09 01:49:39;;;;;;;29.33;16.60;;;-0.20;99.90;;;;;;5068179;28;20044;-77
2023/03/09 01:52:13;;;;;;;29.67;17.03;;;-0.20;99.90;;;;;;5067367;28;20124;-77
2023/03/09 01:54:46;;;;;;;31.37;17.53;;;-0.30;99.90;;;;;;5057798;28;20072;-75
2023/03/09 01:57:42;;;;;;;29.20;17.40;;;0.20;99.90;;;;;;5032291;28;20509;-76
2023/03/09 02:00:29;;;;;;;27.27;16.60;;;-0.30;99.90;;;;;;5047914;28;20144;-77
2023/03/09 02:03:00;;;;;;;28.90;17.10;;;-0.30;99.90;;;;;;5047452;28;20076;-76
2023/03/09 02:05:43;;;;;;;34.63;18.20;;;-0.40;99.90;;;;;;5049114;28;20460;-76
2023/03/09 02:08:10;;;;;;;30.30;17.10;;;-0.40;99.90;;;;;;5031439;28;20049;-77
2023/03/09 02:10:43;;;;;;;34.23;18.13;;;-0.10;99.90;;;;;;5050072;28;20386;-76
2023/03/09 02:13:14;;;;;;;30.30;18.10;;;-0.10;99.90;;;;;;5049692;28;20148;-76
2023/03/09 02:15:41;;;;;;;34.63;18.52;;;-0.30;99.90;;;;;;5067878;28;20084;-76
2023/03/09 02:18:07;;;;;;;33.70;18.13;;;-0.40;99.90;;;;;;5032839;28;20055;-77
2023/03/09 02:20:54;;;;;;;31.13;19.07;;;-0.40;99.90;;;;;;5068146;28;20131;-76
2023/03/09 02:23:28;;;;;;;35.47;18.60;;;-0.40;99.90;;;;;;5067098;28;20371;-76
2023/03/09 02:26:43;;;;;;;33.80;19.13;;;-0.10;99.90;;;;;;5067923;28;20051;-75
2023/03/09 02:29:09;;;;;;;34.57;19.17;;;-0.40;99.90;;;;;;5084231;28;20385;-76
2023/03/09 02:31:35;;;;;;;35.67;19.70;;;-0.40;99.90;;;;;;5087329;28;20048;-77
2023/03/09 02:34:01;;;;;;;36.30;18.93;;;-0.40;99.90;;;;;;5084290;28;20135;-77
2023/03/09 02:36:27;;;;;;;40.10;20.83;;;-0.40;99.90;;;;;;5053570;28;20157;-76
2023/03/09 02:38:52;;;;;;;37.03;19.93;;;-0.40;99.90;;;;;;5046765;28;20070;-76
2023/03/09 02:41:20;;;;;;;36.03;19.60;;;-0.40;99.90;;;;;;5067503;28;20079;-76
2023/03/09 02:43:50;;;;;;;37.80;19.80;;;-0.50;99.90;;;;;;5066842;28;20047;-76
2023/03/09 02:46:16;;;;;;;36.57;20.17;;;0.00;99.90;;;;;;5022779;28;20046;-77
2023/03/09 02:48:41;;;;;;;38.30;20.43;;;-0.50;99.90;;;;;;5062288;28;20052;-76
2023/03/09 02:51:07;;;;;;;38.17;21.60;;;-0.50;99.90;;;;;;5049871;28;20445;-76
2023/03/09 02:53:34;;;;;;;35.83;20.33;;;-0.50;99.90;;;;;;5066637;28;20098;-77
2023/03/09 02:56:00;;;;;;;41.83;21.30;;;-0.50;99.90;;;;;;5068045;28;20118;-76
2023/03/09 02:58:26;;;;;;;38.23;20.83;;;-0.10;99.90;;;;;;5051440;28;20470;-75
2023/03/09 03:00:51;;;;;;;43.17;22.07;;;-0.50;99.90;;;;;;5067164;28;20094;-77
2023/03/09 03:03:20;;;;;;;39.47;21.47;;;-0.50;99.90;;;;;;5031884;28;20068;-77
2023/03/09 03:05:46;;;;;;;40.20;21.33;;;-0.40;99.90;;;;;;5049467;28;20094;-76
2023/03/09 03:08:12;;;;;;;39.00;21.73;;;-0.40;99.90;;;;;;5033216;28;20093;-76
2023/03/09 03:10:38;;;;;;;41.43;22.47;;;-0.40;99.90;;;;;;5066033;28;20128;-77
2023/03/09 03:13:04;;;;;;;45.33;23.10;;;-0.40;99.90;;;;;;5031800;28;20128;-76
2023/03/09 03:15:30;;;;;;;46.80;23.07;;;-0.40;99.90;;;;;;5066641;28;20060;-76
2023/03/09 03:17:55;;;;;;;45.10;21.83;;;-0.40;99.90;;;;;;5052493;28;20068;-76
2023/03/09 03:20:21;;;;;;;41.87;21.80;;;-0.40;99.90;;;;;;5069708;28;20036;-76
2023/03/09 03:22:47;;;;;;;43.33;22.43;;;-0.40;99.90;;;;;;5069038;28;20086;-76
2023/03/09 03:25:13;;;;;;;41.33;23.33;;;-0.40;99.90;;;;;;5080195;28;20086;-76
2023/03/09 03:27:39;;;;;;;47.07;23.80;;;-0.40;99.90;;;;;;5052733;28;20436;-76
2023/03/09 03:30:05;;;;;;;42.23;23.27;;;-0.40;99.90;;;;;;5070310;28;20044;-76
2023/03/09 03:32:31;;;;;;;47.37;24.43;;;-0.40;99.90;;;;;;5050350;28;20144;-76
2023/03/09 03:34:57;;;;;;;47.30;24.60;;;-0.30;99.90;;;;;;5047322;28;20127;-76
2023/03/09 03:37:22;;;;;;;46.50;24.90;;;-0.30;99.90;;;;;;5053297;28;20051;-77
2023/03/09 03:39:48;;;;;;;41.67;24.33;;;-0.10;99.90;;;;;;5069404;28;20037;-76
2023/03/09 03:42:14;;;;;;;45.27;24.50;;;-0.30;99.90;;;;;;5050346;28;20418;-76
2023/03/09 03:44:39;;;;;;;45.13;24.03;;;-0.30;99.90;;;;;;5069577;28;20056;-76
2023/03/09 03:47:05;;;;;;;44.53;25.30;;;-0.30;99.90;;;;;;5053422;28;20087;-76
2023/03/09 03:49:31;;;;;;;42.80;23.53;;;-0.30;99.90;;;;;;5069151;28;20044;-76
2023/03/09 03:51:56;;;;;;;40.50;23.67;;;-0.30;99.90;;;;;;5069499;28;20052;-75
2023/03/09 03:54:22;;;;;;;40.20;23.37;;;-0.20;99.90;;;;;;5046791;28;20364;-76
2023/03/09 03:56:48;;;;;;;45.17;24.87;;;0.40;99.90;;;;;;5033094;28;20060;-76
2023/03/09 03:59:13;;;;;;;45.47;24.90;;;-0.20;99.90;;;;;;5048075;28;20049;-76
2023/03/09 04:01:39;;;;;;;45.43;25.53;;;-0.20;99.90;;;;;;5049160;28;20048;-76
2023/03/09 04:04:05;;;;;;;45.27;24.37;;;-0.10;99.90;;;;;;5048506;28;20051;-76
2023/03/09 04:06:32;;;;;;;47.77;24.97;;;-0.10;99.90;;;;;;5016679;28;20056;-76
2023/03/09 04:08:58;;;;;;;47.20;25.13;;;-0.20;99.90;;;;;;5044886;28;20045;-76
2023/03/09 04:11:24;;;;;;;43.03;24.53;;;-0.20;99.90;;;;;;5064311;28;20076;-76
2023/03/09 04:13:51;;;;;;;45.40;25.30;;;-0.20;99.90;;;;;;5068356;28;20127;-76
2023/03/09 04:16:16;;;;;;;44.07;25.40;;;0.00;99.90;;;;;;5058123;28;20382;-76
2023/03/09 04:18:42;;;;;;;48.00;26.80;;;0.20;99.90;;;;;;5062696;28;20047;-76
2023/03/09 04:21:08;;;;;;;48.67;25.93;;;-0.30;99.90;;;;;;5050380;28;20464;-76
2023/03/09 04:23:33;;;;;;;46.47;26.23;;;-0.20;99.90;;;;;;5070484;28;20044;-77
2023/03/09 04:26:02;;;;;;;44.80;24.63;;;-0.20;99.90;;;;;;5078698;28;20041;-76
2023/03/09 04:28:27;;;;;;;45.03;25.33;;;-0.30;99.90;;;;;;5053053;28;20036;-76
2023/03/09 04:30:54;;;;;;;43.47;24.53;;;-0.20;99.90;;;;;;5069332;28;20390;-76
2023/03/09 04:33:19;;;;;;;45.63;25.87;;;-0.30;99.90;;;;;;5066572;28;20044;-76
2023/03/09 04:35:45;;;;;;;44.90;25.43;;;-0.30;99.90;;;;;;5030750;28;20105;-77
2023/03/09 04:38:12;;;;;;;48.37;26.13;;;0.10;99.90;;;;;;5054556;28;20080;-76
2023/03/09 04:40:37;;;;;;;45.03;25.53;;;-0.20;99.90;;;;;;5072184;28;20375;-77
2023/03/09 04:43:04;;;;;;;45.57;26.17;;;-0.30;99.90;;;;;;5053185;28;20044;-76
2023/03/09 04:45:30;;;;;;;48.73;26.90;;;-0.30;99.90;;;;;;5054481;28;20467;-76
2023/03/09 04:47:56;;;;;;;46.60;25.93;;;-0.20;99.90;;;;;;5055975;28;20780;-77
2023/03/09 04:50:23;;;;;;;45.90;25.47;;;-0.10;99.90;;;;;;5054960;28;20040;-76
2023/03/09 04:52:49;;;;;;;50.80;26.73;;;-0.10;99.90;;;;;;5071416;28;20101;-76
2023/03/09 04:55:16;;;;;;;47.70;25.07;;;-0.10;99.90;;;;;;5056989;28;20048;-76
2023/03/09 04:57:42;;;;;;;47.07;26.60;;;-0.20;99.90;;;;;;5035721;28;20522;-76
2023/03/09 05:00:10;;;;;;;46.87;25.97;;;-0.20;99.90;;;;;;5050413;28;20041;-76
2023/03/09 05:02:40;;;;;;;51.90;27.10;;;-0.20;99.90;;;;;;5051405;28;20049;-76
2023/03/09 05:05:07;;;;;;;49.77;26.57;;;-0.10;99.90;;;;;;5050595;28;20580;-76
2023/03/09 05:07:33;;;;;;;48.47;25.63;;;-0.10;99.90;;;;;;5035871;28;20047;-76
2023/03/09 05:09:59;;;;;;;43.63;24.17;;;-0.20;99.90;;;;;;5054153;28;20032;-76
2023/03/09 05:12:30;;;;;;;46.80;25.83;;;-0.20;99.90;;;;;;5070963;28;20075;-76
2023/03/09 05:14:57;;;;;;;44.40;26.10;;;-0.20;99.90;;;;;;5071714;28;20479;-76
2023/03/09 05:17:23;;;;;;;48.83;24.60;;;0.40;99.90;;;;;;5055089;28;20041;-77
2023/03/09 05:19:49;;;;;;;46.77;25.53;;;-0.20;99.90;;;;;;5037272;28;20505;-76
2023/03/09 05:22:17;;;;;;;44.70;25.07;;;-0.20;99.90;;;;;;5071098;28;20123;-76
2023/03/09 05:24:43;;;;;;;43.67;24.73;;;-0.20;99.90;;;;;;5082247;28;20050;-77
2023/03/09 05:27:09;;;;;;;47.47;25.73;;;-0.20;99.90;;;;;;5054919;28;20040;-76
2023/03/09 05:29:34;;;;;;;43.13;24.13;;;-0.20;99.90;;;;;;5071324;28;20386;-77
2023/03/09 05:32:01;;;;;;;49.37;25.80;;;-0.10;99.90;;;;;;5070833;28;20044;-77
2023/03/09 05:34:27;;;;;;;46.30;23.67;;;-0.20;99.90;;;;;;5064344;28;20119;-76
2023/03/09 05:36:52;;;;;;;45.40;25.33;;;0.00;99.90;;;;;;5054240;28;20120;-76
2023/03/09 05:39:18;;;;;;;48.13;25.30;;;-0.20;99.90;;;;;;5070747;28;20048;-77
2023/03/09 05:41:44;;;;;;;43.50;24.53;;;-0.20;99.90;;;;;;5053117;28;20500;-76
2023/03/09 05:44:10;;;;;;;43.90;23.63;;;-0.10;99.90;;;;;;5070741;28;20043;-76
2023/03/09 05:46:35;;;;;;;43.97;23.93;;;-0.20;99.90;;;;;;5039688;28;20532;-76
2023/03/09 05:49:01;;;;;;;45.47;24.13;;;-0.20;99.90;;;;;;5067151;28;20432;-76
2023/03/09 05:51:27;;;;;;;46.77;25.33;;;-0.20;99.90;;;;;;5068929;28;20560;-76
2023/03/09 05:53:52;;;;;;;46.33;24.97;;;-0.20;99.90;;;;;;5067049;28;20047;-76
2023/03/09 05:56:18;;;;;;;40.17;23.43;;;-0.10;99.90;;;;;;5044275;28;20490;-76
2023/03/09 05:58:47;;;;;;;43.27;25.00;;;-0.10;99.90;;;;;;5042833;28;20122;-76
2023/03/09 06:01:21;;;;;;;42.03;23.53;;;-0.10;99.90;;;;;;5048170;28;20094;-76
2023/03/09 06:03:46;;;;;;;47.47;25.63;;;-0.10;99.90;;;;;;5046766;28;20049;-76
2023/03/09 06:06:12;;;;;;;41.53;23.77;;;-0.10;99.90;;;;;;5054183;28;20048;-77
2023/03/09 06:08:38;;;;;;;39.97;24.93;;;-0.10;99.90;;;;;;5060640;28;20124;-76
2023/03/09 06:11:04;;;;;;;41.67;22.80;;;-0.10;99.90;;;;;;5067520;28;20127;-76
2023/03/09 06:13:30;;;;;;;45.20;24.63;;;-0.10;99.90;;;;;;5066828;28;20102;-76
2023/03/09 06:15:55;;;;;;;42.43;24.50;;;0.40;99.90;;;;;;5049197;28;20055;-77
2023/03/09 06:18:21;;;;;;;42.10;23.73;;;0.50;99.90;;;;;;5048549;28;20055;-78
2023/03/09 06:20:48;;;;;;;42.07;23.93;;;-0.10;99.90;;;;;;5068009;28;20051;-76
2023/03/09 06:23:13;;;;;;;42.03;24.33;;;-0.10;99.90;;;;;;5061743;28;20487;-76
2023/03/09 06:25:39;;;;;;;39.53;22.90;;;-0.10;99.90;;;;;;5080055;28;20055;-75
2023/03/09 06:28:05;;;;;;;41.80;23.63;;;0.00;99.90;;;;;;5053342;28;20473;-76
2023/03/09 06:30:31;;;;;;;42.10;23.60;;;-0.10;99.90;;;;;;5070249;28;20043;-76
2023/03/09 06:32:57;;;;;;;41.03;23.77;;;-0.10;99.90;;;;;;5065447;28;20124;-76
2023/03/09 06:35:24;;;;;;;40.97;23.40;;;-0.10;99.90;;;;;;5064959;28;20405;-76
2023/03/09 06:37:50;;;;;;;42.77;24.43;;;-0.10;99.90;;;;;;5031813;28;20148;-76
2023/03/09 06:40:17;;;;;;;40.80;22.30;;;-0.10;99.90;;;;;;5046957;28;20526;-76
2023/03/09 06:42:45;;;;;;;45.43;24.17;;;0.00;99.90;;;;;;5029991;28;20071;-78
2023/03/09 06:45:10;;;;;;;42.77;23.83;;;0.00;99.90;;;;;;5015692;28;20037;-76
2023/03/09 06:47:36;;;;;;;39.17;23.33;;;0.00;99.90;;;;;;5016063;28;20483;-76
2023/03/09 06:50:03;;;;;;;38.97;22.90;;;0.00;99.90;;;;;;5064553;28;20188;-76
2023/03/09 06:52:28;;;;;;;38.20;23.30;;;0.00;99.90;;;;;;5065899;28;20044;-77
2023/03/09 06:54:54;;;;;;;42.70;22.90;;;0.10;99.90;;;;;;5066707;28;20060;-76
2023/03/09 06:57:20;;;;;;;36.93;21.17;;;0.10;99.90;;;;;;5031192;28;20168;-76
2023/03/09 06:59:46;;;;;;;38.80;23.33;;;0.30;99.90;;;;;;5061618;28;20045;-76
2023/03/09 07:02:12;;;;;;;44.13;22.70;;;0.10;99.90;;;;;;5047386;28;20036;-76
2023/03/09 07:04:39;;;;;;;42.40;23.80;;;0.20;99.90;;;;;;5065158;28;20083;-76
2023/03/09 07:07:04;;;;;;;40.13;22.90;;;0.20;99.90;;;;;;5050563;28;20044;-76
2023/03/09 07:09:31;;;;;;;40.97;22.97;;;0.20;99.90;;;;;;5064798;28;20045;-76
2023/03/09 07:11:58;;;;;;;36.47;22.37;;;0.30;99.90;;;;;;5048346;28;20048;-77
2023/03/09 07:14:24;;;;;;;37.37;22.67;;;0.30;99.90;;;;;;5063770;28;20048;-77
2023/03/09 07:16:54;;;;;;;36.57;22.13;;;0.40;99.90;;;;;;5036960;28;20490;-76
2023/03/09 07:19:21;;;;;;;27.40;16.23;;;0.50;99.90;;;;;;5067563;28;20044;-77
2023/03/09 07:21:46;;;;;;;34.43;21.63;;;0.50;99.90;;;;;;5069686;28;20680;-76
2023/03/09 07:24:12;;;;;;;34.40;21.07;;;0.60;99.90;;;;;;5075202;28;20122;-76
2023/03/09 07:26:38;;;;;;;37.83;21.00;;;0.60;99.90;;;;;;5059805;28;20047;-76
2023/03/09 07:29:04;;;;;;;38.90;21.97;;;0.60;99.90;;;;;;5066878;28;20047;-77
2023/03/09 07:31:29;;;;;;;37.03;22.47;;;0.60;99.90;;;;;;5069286;28;20040;-76
2023/03/09 07:33:56;;;;;;;34.30;20.40;;;0.60;99.90;;;;;;5066646;28;20393;-76
2023/03/09 07:36:22;;;;;;;36.53;21.33;;;0.70;99.90;;;;;;5054178;28;20359;-76
2023/03/09 07:38:48;;;;;;;33.40;20.93;;;0.90;99.90;;;;;;5065089;28;20095;-76
2023/03/09 07:41:14;;;;;;;34.53;20.87;;;1.10;99.90;;;;;;5068547;28;20040;-76
2023/03/09 07:43:49;;;;;;;32.13;20.00;;;1.30;99.90;;;;;;5049992;28;20098;-76
2023/03/09 07:46:16;;;;;;;33.10;20.57;;;1.90;99.90;;;;;;5059079;28;20079;-79
2023/03/09 07:48:42;;;;;;;35.60;21.13;;;1.40;99.90;;;;;;5062197;28;20140;-76
2023/03/09 07:51:10;;;;;;;32.93;20.53;;;1.60;99.90;;;;;;5068704;28;20094;-77
2023/03/09 07:53:37;;;;;;;37.93;21.63;;;1.50;99.90;;;;;;5067310;28;20044;-76
2023/03/09 07:56:05;;;;;;;35.60;20.97;;;1.50;99.90;;;;;;5033851;28;20051;-77
2023/03/09 07:58:36;;;;;;;33.63;20.33;;;1.80;99.90;;;;;;5038907;28;20043;-77
2023/03/09 08:01:02;;;;;;;32.38;20.23;;;1.50;99.90;;;;;;5068392;28;20486;-76
2023/03/09 08:03:29;;;;;;;30.77;20.10;;;1.60;99.90;;;;;;5049289;28;20049;-77
2023/03/09 08:05:58;;;;;;;31.77;19.40;;;1.70;99.90;;;;;;5049996;28;20052;-76
2023/03/09 08:08:28;;;;;;;33.07;19.30;;;1.80;99.90;;;;;;5033064;28;20484;-77
2023/03/09 08:10:54;;;;;;;29.57;18.67;;;2.10;99.90;;;;;;5067467;28;20037;-77
2023/03/09 08:13:21;;;;;;;29.43;20.13;;;2.10;99.90;;;;;;5068875;28;20119;-77
2023/03/09 08:15:48;;;;;;;29.97;18.53;;;2.40;99.90;;;;;;5054440;28;20044;-76
2023/03/09 08:18:14;;;;;;;29.50;17.93;;;2.30;99.90;;;;;;5055225;28;20485;-78
2023/03/09 08:20:40;;;;;;;23.07;16.03;;;2.80;99.90;;;;;;5049437;28;20111;-76
2023/03/09 08:23:06;;;;;;;28.50;17.67;;;2.40;99.90;;;;;;5070961;28;20371;-77
2023/03/09 08:25:32;;;;;;;27.37;17.40;;;2.60;99.90;;;;;;5071473;28;20041;-77
2023/03/09 08:27:58;;;;;;;26.47;17.57;;;2.60;99.90;;;;;;5053435;28;20101;-77
2023/03/09 08:30:24;;;;;;;23.83;16.27;;;2.60;99.90;;;;;;5071930;28;20036;-76
2023/03/09 08:32:52;;;;;;;25.90;16.40;;;2.60;99.90;;;;;;5069287;28;20375;-77
2023/03/09 08:35:20;;;;;;;25.87;16.50;;;2.80;99.90;;;;;;5053493;28;20525;-77
2023/03/09 08:37:46;;;;;;;25.27;17.20;;;3.00;99.90;;;;;;5053494;28;20089;-77
2023/03/09 08:40:13;;;;;;;23.53;15.67;;;3.50;99.90;;;;;;5070712;28;20131;-77
2023/03/09 08:42:38;;;;;;;22.47;15.23;;;3.10;99.90;;;;;;5069157;28;20047;-77
2023/03/09 08:45:05;;;;;;;22.10;15.40;;;3.10;99.90;;;;;;5070716;28;20041;-78
2023/03/09 08:47:31;;;;;;;23.70;14.17;;;3.10;99.90;;;;;;5054653;28;20048;-77
2023/03/09 08:49:58;;;;;;;21.43;14.07;;;3.10;99.90;;;;;;5071420;28;20355;-77
2023/03/09 08:52:24;;;;;;;20.23;14.47;;;3.20;99.90;;;;;;5070621;28;20196;-77
2023/03/09 08:54:50;;;;;;;20.60;14.13;;;3.20;99.90;;;;;;5069439;28;20047;-77
2023/03/09 08:57:16;;;;;;;18.67;13.43;;;3.90;99.90;;;;;;5054854;28;20036;-77
2023/03/09 08:59:42;;;;;;;20.43;13.90;;;3.20;99.90;;;;;;5070263;28;20095;-76
2023/03/09 09:02:14;;;;;;;16.97;12.17;;;3.10;99.90;;;;;;5070774;28;20041;-77
2023/03/09 09:04:44;;;;;;;17.75;11.65;;;3.30;99.90;;;;;;5052073;28;20068;-77
2023/03/09 09:07:10;;;;;;;17.23;11.53;;;3.10;99.90;;;;;;5035649;28;20038;-77
2023/03/09 09:09:37;;;;;;;17.47;12.47;;;3.30;99.90;;;;;;5069857;28;20041;-78
2023/03/09 09:12:03;;;;;;;20.00;12.33;;;3.10;99.90;;;;;;5069089;28;20040;-74
2023/03/09 09:14:28;;;;;;;16.53;10.90;;;3.20;99.90;;;;;;5036057;28;20043;-77
2023/03/09 09:16:54;;;;;;;17.03;11.63;;;3.20;99.90;;;;;;5054681;28;20037;-76
2023/03/09 09:19:20;;;;;;;17.47;11.23;;;3.20;99.90;;;;;;5069758;28;20047;-78
2023/03/09 09:21:45;;;;;;;15.87;11.03;;;3.40;99.90;;;;;;5070714;28;20098;-76
2023/03/09 09:24:11;;;;;;;18.00;11.30;;;3.30;99.90;;;;;;5052585;28;20127;-76
2023/03/09 09:26:37;;;;;;;16.43;10.73;;;3.50;99.90;;;;;;5041101;28;20083;-76
2023/03/09 09:29:05;;;;;;;16.03;11.30;;;3.40;99.90;;;;;;5068333;28;20055;-77
2023/03/09 09:31:30;;;;;;;17.17;11.70;;;3.20;99.90;;;;;;5071340;28;20558;-76
2023/03/09 09:33:56;;;;;;;14.33;10.30;;;3.10;99.90;;;;;;5069130;28;20040;-77
2023/03/09 09:36:24;;;;;;;14.47;10.53;;;3.20;99.90;;;;;;5055618;28;20471;-77
2023/03/09 09:38:52;;;;;;;15.87;11.47;;;3.10;99.90;;;;;;5066431;28;20048;-78
2023/03/09 09:41:20;;;;;;;14.53;10.70;;;3.00;99.90;;;;;;5070753;28;20048;-77
2023/03/09 09:43:53;;;;;;;15.13;10.40;;;3.10;99.90;;;;;;5051068;28;20085;-77
2023/03/09 09:46:21;;;;;;;15.20;11.00;;;3.10;99.90;;;;;;5058823;28;20047;-76
2023/03/09 09:48:48;;;;;;;15.23;11.10;;;3.30;99.90;;;;;;5065463;28;20563;-76
2023/03/09 09:51:51;;;;;;;17.70;12.23;;;4.00;99.90;;;;;;5069714;28;20032;-77
2023/03/09 09:54:38;;;;;;;14.40;10.60;;;3.50;99.90;;;;;;5068641;28;20059;-77
2023/03/09 09:57:19;;;;;;;14.67;9.47;;;3.80;99.90;;;;;;5051930;28;20256;-76
2023/03/09 10:00:21;;;;;;;15.25;10.13;;;3.70;99.90;;;;;;5052760;28;20097;-77
2023/03/09 10:03:04;;;;;;;13.37;9.47;;;3.60;99.90;;;;;;5068782;28;20123;-77
2023/03/09 10:05:57;;;;;;;12.63;9.47;;;3.60;99.90;;;;;;5068379;28;20409;-76
2023/03/09 10:08:45;;;;;;;13.17;9.40;;;3.60;99.90;;;;;;5025619;28;20045;-77
2023/03/09 10:11:31;;;;;;;12.77;9.60;;;3.80;99.90;;;;;;5067661;28;20044;-77
2023/03/09 10:14:44;;;;;;;14.93;9.67;;;4.10;99.90;;;;;;5066713;28;20036;-77
2023/03/09 10:17:23;;;;;;;13.93;9.90;;;4.00;99.90;;;;;;5031860;28;20330;-77
2023/03/09 10:19:50;;;;;;;13.70;9.67;;;4.00;99.90;;;;;;5070023;28;20043;-77
2023/03/09 10:22:24;;;;;;;12.80;9.50;;;4.20;99.90;;;;;;5051659;28;20080;-77
2023/03/09 10:24:52;;;;;;;14.70;10.00;;;4.10;99.90;;;;;;5061422;28;20060;-76
2023/03/09 10:27:49;;;;;;;11.83;9.30;;;4.20;99.90;;;;;;5035787;28;20048;-77
2023/03/09 10:30:40;;;;;;;12.87;9.40;;;4.30;99.90;;;;;;5069243;28;20032;-78
2023/03/09 10:33:18;;;;;;;12.55;9.13;;;4.40;99.90;;;;;;5068673;28;20044;-77
2023/03/09 10:35:54;;;;;;;13.53;9.50;;;4.40;99.90;;;;;;5061179;28;20033;-77
2023/03/09 10:38:22;;;;;;;12.23;9.13;;;4.40;99.90;;;;;;5019868;28;20087;-77
2023/03/09 10:40:50;;;;;;;9.50;7.90;;;4.40;99.90;;;;;;5069470;28;20049;-77
2023/03/09 10:43:32;;;;;;;9.70;7.40;;;4.60;99.90;;;;;;5044015;28;20040;-77
2023/03/09 10:46:18;;;;;;;;;;;4.70;99.90;;;;;;5068481;28;20044;-77
2023/03/09 10:48:45;;;;;;;7.93;6.47;;;4.80;99.90;;;;;;5062165;28;19923;-77
2023/03/09 10:51:39;;;;;;;10.73;7.33;;;4.60;99.90;;;;;;5068608;28;20124;-77
2023/03/09 10:54:22;;;;;;;9.80;6.77;;;4.50;99.90;;;;;;5066073;28;20037;-77
2023/03/09 10:56:48;;;;;;;8.57;5.37;;;4.30;99.90;;;;;;5036250;28;20489;-77
2023/03/09 10:59:22;;;;;;;6.40;5.40;;;4.20;99.90;;;;;;5068058;28;20123;-77
2023/03/09 11:01:51;;;;;;;8.97;6.20;;;4.20;99.90;;;;;;5050332;28;20453;-77
2023/03/09 11:04:24;;;;;;;9.53;6.23;;;4.10;99.90;;;;;;5048944;28;20131;-77
2023/03/09 11:07:00;;;;;;;9.63;6.47;;;4.10;99.90;;;;;;5051414;28;20389;-77
2023/03/09 11:09:41;;;;;;;7.27;5.53;;;4.30;99.90;;;;;;5068120;28;20036;-77
2023/03/09 11:12:39;;;;;;;9.63;5.10;;;4.40;99.90;;;;;;5067184;28;20036;-77
2023/03/09 11:15:28;;;;;;;6.70;4.90;;;4.40;99.90;;;;;;5062229;28;20052;-76
2023/03/09 11:17:55;;;;;;;7.40;5.27;;;4.40;99.90;;;;;;5049894;28;20066;-76
2023/03/09 11:20:38;;;;;;;7.30;5.07;;;4.50;99.90;;;;;;5020756;28;20044;-78
2023/03/09 11:23:13;;;;;;;7.87;5.30;;;4.40;99.90;;;;;;5032946;28;20041;-77
2023/03/09 11:26:03;;;;;;;8.43;5.67;;;4.60;99.90;;;;;;5053727;28;20081;-76
2023/03/09 11:28:41;;;;;;;7.30;5.80;;;4.70;99.90;;;;;;5032816;28;20037;-77
2023/03/09 11:31:13;;;;;;;7.40;5.50;;;4.60;99.90;;;;;;5048744;28;20048;-76
2023/03/09 11:33:39;;;;;;;7.20;5.70;;;4.70;99.90;;;;;;5054752;28;20049;-77
2023/03/09 11:36:10;;;;;;;7.70;5.60;;;4.60;99.90;;;;;;5044919;28;20040;-79
2023/03/09 11:38:36;;;;;;;6.05;4.30;;;4.70;99.90;;;;;;5046074;28;20494;-76
2023/03/09 11:41:14;;;;;;;5.57;4.97;;;4.60;99.90;;;;;;5033034;28;20458;-77
2023/03/09 11:43:44;;;;;;;6.87;4.73;;;4.60;99.90;;;;;;5047396;28;20483;-77
2023/03/09 11:46:15;;;;;;;7.83;5.33;;;4.50;99.90;;;;;;5008820;28;20554;-76
2023/03/09 11:49:09;;;;;;;9.88;5.85;;;4.60;99.90;;;;;;5038602;28;20127;-79
2023/03/09 11:51:41;;;;;;;6.57;5.40;;;4.50;99.90;;;;;;5053242;28;20052;-77
2023/03/09 11:54:14;;;;;;;7.37;5.70;;;4.60;99.90;;;;;;5058407;28;20128;-77
2023/03/09 11:56:46;;;;;;;10.47;6.70;;;4.80;99.90;;;;;;5041131;28;20386;-77
2023/03/09 11:59:52;;;;;;;8.87;5.90;;;4.80;99.90;;;;;;5035614;28;20549;-77
2023/03/09 12:02:33;;;;;;;6.67;5.73;;;4.70;99.90;;;;;;5053513;28;20056;-77
2023/03/09 12:04:59;;;;;;;8.60;5.97;;;4.70;99.90;;;;;;5048056;28;20049;-77
2023/03/09 12:08:02;;;;;;;9.57;5.87;;;4.50;99.90;;;;;;5048734;28;20050;-77
2023/03/09 12:10:30;;;;;;;9.20;5.70;;;4.50;99.90;;;;;;5066362;28;20056;-77
2023/03/09 12:13:03;;;;;;;7.70;6.07;;;4.50;99.90;;;;;;5066585;28;20040;-77
2023/03/09 12:15:43;;;;;;;6.13;4.70;;;4.60;99.90;;;;;;5068006;28;20375;-77
2023/03/09 12:18:23;;;;;;;8.67;5.27;;;4.60;99.90;;;;;;5024726;28;20482;-77
2023/03/09 12:20:52;;;;;;;7.57;5.47;;;4.60;99.90;;;;;;5057330;28;20363;-78
2023/03/09 12:23:36;;;;;;;7.67;5.53;;;4.60;99.90;;;;;;5055629;28;20120;-78
2023/03/09 12:26:30;;;;;;;7.50;5.53;;;4.50;99.90;;;;;;5064064;28;20044;-77
2023/03/09 12:29:21;;;;;;;7.70;5.70;;;4.60;99.90;;;;;;5063278;28;20054;-76
2023/03/09 12:32:39;;;;;;;8.53;5.90;;;4.60;99.90;;;;;;5064331;28;20485;-77
2023/03/09 12:35:12;;;;;;;7.50;5.67;;;4.50;99.90;;;;;;5018572;28;20049;-77
2023/03/09 12:37:56;;;;;;;7.67;6.10;;;4.50;99.90;;;;;;5043987;28;20094;-77
2023/03/09 12:40:25;;;;;;;10.77;6.87;;;4.50;99.90;;;;;;5062983;28;20041;-77
2023/03/09 12:42:53;;;;;;;11.10;6.90;;;4.50;99.90;;;;;;5058273;28;20045;-77
2023/03/09 12:45:24;;;;;;;7.87;5.97;;;4.50;99.90;;;;;;5058454;28;20114;-77
2023/03/09 12:48:11;;;;;;;8.17;6.47;;;4.50;99.90;;;;;;5043497;28;20040;-78
2023/03/09 12:51:02;;;;;;;7.50;6.57;;;4.40;99.90;;;;;;5059180;28;20037;-77
2023/03/09 12:53:33;;;;;;;9.05;5.80;;;4.40;99.90;;;;;;5062520;28;20080;-79